createdAt,value
2023-02-07T00:00:06.538Z,-1.500000
2023-02-07T00:01:01.343Z,-1.500000
2023-02-07T00:02:01.436Z,-1.500000
2023-02-07T00:03:01.380Z,-1.500000
2023-02-07T00:04:01.422Z,-1.600000
2023-02-07T00:05:05.712Z,-1.600000
2023-02-07T00:06:01.415Z,-1.600000
2023-02-07T00:07:01.362Z,-1.600000
2023-02-07T00:08:01.421Z,-1.600000
2023-02-07T00:09:01.375Z,-1.700000
2023-02-07T00:10:04.997Z,-1.700000
2023-02-07T00:11:01.362Z,-1.700000
2023-02-07T00:12:01.455Z,-1.700000
2023-02-07T00:13:01.394Z,-1.700000
2023-02-07T00:14:01.556Z,-1.700000
2023-02-07T00:15:05.800Z,-1.700000
2023-02-07T00:16:01.484Z,-1.700000
2023-02-07T00:17:01.424Z,-1.700000
2023-02-07T00:18:01.567Z,-1.700000
2023-02-07T00:19:01.441Z,-1.700000
2023-02-07T00:20:05.033Z,-1.700000
2023-02-07T00:21:01.437Z,-1.700000
2023-02-07T00:22:01.525Z,-1.700000
2023-02-07T00:23:01.449Z,-1.700000
2023-02-07T00:24:01.545Z,-1.800000
2023-02-07T00:25:05.800Z,-1.800000
2023-02-07T00:26:01.533Z,-1.800000
2023-02-07T00:27:01.471Z,-1.800000
2023-02-07T00:28:01.695Z,-1.800000
2023-02-07T00:29:01.475Z,-1.800000
2023-02-07T00:30:06.444Z,-1.900000
2023-02-07T00:31:00.641Z,-1.900000
2023-02-07T00:32:01.595Z,-1.900000
2023-02-07T00:33:00.508Z,-1.900000
2023-02-07T00:34:00.831Z,-1.900000
2023-02-07T00:35:03.934Z,-1.900000
2023-02-07T00:36:01.583Z,-1.900000
2023-02-07T00:37:00.527Z,-1.900000
2023-02-07T00:38:00.602Z,-1.900000
2023-02-07T00:39:00.532Z,-1.900000
2023-02-07T00:40:05.155Z,-1.800000
2023-02-07T00:41:00.537Z,-1.800000
2023-02-07T00:42:00.846Z,-1.800000
2023-02-07T00:43:00.543Z,-1.800000
2023-02-07T00:44:01.568Z,-1.800000
2023-02-07T00:45:05.005Z,-1.800000
2023-02-07T00:46:00.717Z,-1.800000
2023-02-07T00:47:00.580Z,-1.800000
2023-02-07T00:48:00.690Z,-1.800000
2023-02-07T00:49:00.570Z,-1.800000
2023-02-07T00:50:05.852Z,-1.700000
2023-02-07T00:51:00.618Z,-1.700000
2023-02-07T00:52:00.693Z,-1.700000
2023-02-07T00:53:00.619Z,-1.700000
2023-02-07T00:54:00.727Z,-1.700000
2023-02-07T00:55:03.949Z,-1.700000
2023-02-07T00:56:00.690Z,-1.700000
2023-02-07T00:57:00.652Z,-1.700000
2023-02-07T00:58:01.565Z,-1.700000
2023-02-07T00:59:00.662Z,-1.700000
2023-02-07T01:00:06.577Z,-1.700000
2023-02-07T01:01:00.697Z,-1.700000
2023-02-07T01:02:00.785Z,-1.700000
2023-02-07T01:03:00.720Z,-1.600000
2023-02-07T01:04:00.781Z,-1.600000
2023-02-07T01:05:04.122Z,-1.600000
2023-02-07T01:06:00.829Z,-1.600000
2023-02-07T01:07:00.716Z,-1.600000
2023-02-07T01:08:00.788Z,-1.600000
2023-02-07T01:09:00.752Z,-1.600000
2023-02-07T01:10:05.326Z,-1.600000
2023-02-07T01:11:00.747Z,-1.600000
2023-02-07T01:12:01.020Z,-1.600000
2023-02-07T01:13:00.759Z,-1.600000
2023-02-07T01:14:01.628Z,-1.600000
2023-02-07T01:15:04.058Z,-1.600000
2023-02-07T01:16:00.929Z,-1.700000
2023-02-07T01:17:00.790Z,-1.700000
2023-02-07T01:18:00.923Z,-1.700000
2023-02-07T01:19:00.796Z,-1.700000
2023-02-07T01:20:05.515Z,-1.700000
2023-02-07T01:21:00.823Z,-1.700000
2023-02-07T01:22:00.905Z,-1.700000
2023-02-07T01:23:00.830Z,-1.700000
2023-02-07T01:24:00.934Z,-1.700000
2023-02-07T01:25:04.268Z,-1.700000
2023-02-07T01:26:00.898Z,-1.700000
2023-02-07T01:27:00.874Z,-1.700000
2023-02-07T01:28:01.665Z,-1.700000
2023-02-07T01:29:00.862Z,-1.700000
2023-02-07T01:30:05.569Z,-1.700000
2023-02-07T01:31:00.989Z,-1.700000
2023-02-07T01:32:01.581Z,-1.700000
2023-02-07T01:33:00.900Z,-1.800000
2023-02-07T01:34:00.987Z,-1.800000
2023-02-07T01:35:05.373Z,-1.800000
2023-02-07T01:36:01.583Z,-1.800000
2023-02-07T01:37:00.893Z,-1.800000
2023-02-07T01:38:00.968Z,-1.800000
2023-02-07T01:39:00.939Z,-1.800000
2023-02-07T01:40:05.475Z,-1.900000
2023-02-07T01:41:00.946Z,-1.900000
2023-02-07T01:42:01.025Z,-2.000000
2023-02-07T01:43:00.924Z,-2.000000
2023-02-07T01:44:01.570Z,-2.000000
2023-02-07T01:45:06.037Z,-2.200000
2023-02-07T01:46:01.088Z,-2.200000
2023-02-07T01:47:00.955Z,-2.200000
2023-02-07T01:48:01.099Z,-2.300000
2023-02-07T01:49:00.976Z,-2.300000
2023-02-07T01:50:04.808Z,-2.400000
2023-02-07T01:51:00.990Z,-2.400000
2023-02-07T01:52:01.043Z,-2.400000
2023-02-07T01:53:00.983Z,-2.400000
2023-02-07T01:54:01.102Z,-2.400000
2023-02-07T01:55:05.425Z,-2.400000
2023-02-07T01:56:01.070Z,-2.400000
2023-02-07T01:57:01.022Z,-2.400000
2023-02-07T01:58:01.576Z,-2.500000
2023-02-07T01:59:01.042Z,-2.500000
2023-02-07T02:00:06.597Z,-2.600000
2023-02-07T02:01:01.051Z,-2.600000
2023-02-07T02:02:01.105Z,-2.600000
2023-02-07T02:03:01.041Z,-2.600000
2023-02-07T02:04:01.107Z,-2.600000
2023-02-07T02:05:04.336Z,-2.600000
2023-02-07T02:06:01.208Z,-2.500000
2023-02-07T02:07:01.056Z,-2.500000
2023-02-07T02:08:01.111Z,-2.300000
2023-02-07T02:09:01.094Z,-2.300000
2023-02-07T02:10:05.939Z,-2.300000
2023-02-07T02:11:01.113Z,-2.300000
2023-02-07T02:12:01.384Z,-2.300000
2023-02-07T02:13:01.115Z,-2.100000
2023-02-07T02:14:01.575Z,-2.100000
2023-02-07T02:15:04.672Z,-2.100000
2023-02-07T02:16:01.269Z,-2.100000
2023-02-07T02:17:01.154Z,-2.100000
2023-02-07T02:18:01.256Z,-1.900000
2023-02-07T02:19:01.156Z,-1.900000
2023-02-07T02:20:05.814Z,-1.900000
2023-02-07T02:21:01.174Z,-1.700000
2023-02-07T02:22:01.246Z,-1.700000
2023-02-07T02:23:01.167Z,-1.600000
2023-02-07T02:24:01.285Z,-1.600000
2023-02-07T02:25:05.580Z,-1.600000
2023-02-07T02:26:01.257Z,-1.600000
2023-02-07T02:27:00.213Z,-1.600000
2023-02-07T02:28:01.723Z,-1.600000
2023-02-07T02:29:00.217Z,-1.600000
2023-02-07T02:30:04.972Z,-1.600000
2023-02-07T02:31:00.402Z,-1.600000
2023-02-07T02:32:01.578Z,-1.600000
2023-02-07T02:33:00.244Z,-1.600000
2023-02-07T02:34:00.317Z,-1.600000
2023-02-07T02:35:03.671Z,-1.600000
2023-02-07T02:36:00.362Z,-1.700000
2023-02-07T02:37:00.251Z,-1.700000
2023-02-07T02:38:00.370Z,-1.700000
2023-02-07T02:39:00.275Z,-1.700000
2023-02-07T02:40:06.609Z,-1.700000
2023-02-07T02:41:00.312Z,-1.700000
2023-02-07T02:42:01.572Z,-1.700000
2023-02-07T02:43:00.310Z,-1.700000
2023-02-07T02:44:00.362Z,-1.700000
2023-02-07T02:45:03.690Z,-1.700000
2023-02-07T02:46:01.557Z,-1.800000
2023-02-07T02:47:00.338Z,-1.800000
2023-02-07T02:48:33.213Z,-1.800000
2023-02-07T02:49:00.347Z,-1.800000
2023-02-07T02:50:04.985Z,-1.800000
2023-02-07T02:51:00.380Z,-1.900000
2023-02-07T02:52:00.665Z,-1.900000
2023-02-07T02:53:00.360Z,-1.900000
2023-02-07T02:54:01.566Z,-2.000000
2023-02-07T02:55:03.798Z,-2.000000
2023-02-07T02:56:00.453Z,-2.000000
2023-02-07T02:57:00.455Z,-2.000000
2023-02-07T02:58:02.159Z,-2.000000
2023-02-07T02:59:00.411Z,-2.000000
2023-02-07T03:00:05.205Z,-2.000000
2023-02-07T03:01:00.408Z,-2.000000
2023-02-07T03:02:00.558Z,-2.000000
2023-02-07T03:03:00.440Z,-2.000000
2023-02-07T03:04:00.511Z,-2.000000
2023-02-07T03:05:03.805Z,-2.000000
2023-02-07T03:06:00.552Z,-2.100000
2023-02-07T03:07:00.456Z,-2.100000
2023-02-07T03:08:01.566Z,-2.100000
2023-02-07T03:09:00.505Z,-2.100000
2023-02-07T03:10:05.686Z,-2.100000
2023-02-07T03:11:00.512Z,-2.200000
2023-02-07T03:12:01.554Z,-2.200000
2023-02-07T03:13:00.506Z,-2.200000
2023-02-07T03:14:00.597Z,-2.200000
2023-02-07T03:15:03.874Z,-2.200000
2023-02-07T03:16:01.562Z,-2.300000
2023-02-07T03:17:00.537Z,-2.300000
2023-02-07T03:18:01.551Z,-2.300000
2023-02-07T03:19:00.532Z,-2.400000
2023-02-07T03:20:05.150Z,-2.400000
2023-02-07T03:21:01.449Z,-2.400000
2023-02-07T03:22:00.648Z,-2.400000
2023-02-07T03:23:00.552Z,-2.400000
2023-02-07T03:24:00.677Z,-2.500000
2023-02-07T03:25:04.034Z,-2.500000
2023-02-07T03:26:00.661Z,-2.500000
2023-02-07T03:27:00.618Z,-2.600000
2023-02-07T03:28:00.693Z,-2.600000
2023-02-07T03:29:00.592Z,-2.600000
2023-02-07T03:30:05.366Z,-2.700000
2023-02-07T03:31:00.670Z,-2.700000
2023-02-07T03:32:01.556Z,-2.800000
2023-02-07T03:33:00.626Z,-2.800000
2023-02-07T03:34:00.676Z,-2.900000
2023-02-07T03:35:05.708Z,-2.900000
2023-02-07T03:36:00.757Z,-2.900000
2023-02-07T03:37:00.648Z,-2.900000
2023-02-07T03:38:00.724Z,-2.900000
2023-02-07T03:39:00.664Z,-2.900000
2023-02-07T03:40:04.247Z,-2.900000
2023-02-07T03:41:00.679Z,-2.900000
2023-02-07T03:42:01.621Z,-2.900000
2023-02-07T03:43:00.682Z,-2.900000
2023-02-07T03:44:00.755Z,-2.900000
2023-02-07T03:45:05.003Z,-2.900000
2023-02-07T03:46:01.646Z,-2.900000
2023-02-07T03:47:00.702Z,-3.000000
2023-02-07T03:48:00.815Z,-3.000000
2023-02-07T03:49:00.716Z,-3.000000
2023-02-07T03:50:04.634Z,-3.000000
2023-02-07T03:51:00.763Z,-3.000000
2023-02-07T03:52:00.818Z,-3.000000
2023-02-07T03:53:00.735Z,-3.100000
2023-02-07T03:54:01.018Z,-3.100000
2023-02-07T03:55:05.084Z,-3.000000
2023-02-07T03:56:00.850Z,-3.000000
2023-02-07T03:57:00.775Z,-2.800000
2023-02-07T03:58:00.916Z,-2.800000
2023-02-07T03:59:00.781Z,-2.800000
2023-02-07T04:00:05.524Z,-2.600000
2023-02-07T04:01:00.848Z,-2.600000
2023-02-07T04:02:00.941Z,-2.400000
2023-02-07T04:03:00.847Z,-2.400000
2023-02-07T04:04:00.886Z,-2.400000
2023-02-07T04:05:04.378Z,-2.300000
2023-02-07T04:06:00.946Z,-2.300000
2023-02-07T04:07:00.863Z,-2.200000
2023-02-07T04:08:00.919Z,-2.200000
2023-02-07T04:09:00.868Z,-2.200000
2023-02-07T04:10:05.615Z,-2.200000
2023-02-07T04:11:00.884Z,-2.200000
2023-02-07T04:12:00.958Z,-2.200000
2023-02-07T04:13:00.891Z,-2.200000
2023-02-07T04:14:00.992Z,-2.200000
2023-02-07T04:15:04.265Z,-2.200000
2023-02-07T04:16:01.030Z,-2.200000
2023-02-07T04:17:00.920Z,-2.200000
2023-02-07T04:18:01.009Z,-2.100000
2023-02-07T04:19:00.926Z,-2.100000
2023-02-07T04:20:05.714Z,-2.100000
2023-02-07T04:21:00.961Z,-2.100000
2023-02-07T04:22:01.041Z,-2.100000
2023-02-07T04:23:00.951Z,-2.100000
2023-02-07T04:24:01.030Z,-2.100000
2023-02-07T04:25:04.298Z,-2.100000
2023-02-07T04:26:01.064Z,-2.100000
2023-02-07T04:27:00.987Z,-2.100000
2023-02-07T04:28:01.127Z,-2.100000
2023-02-07T04:29:00.972Z,-2.100000
2023-02-07T04:30:06.800Z,-2.100000
2023-02-07T04:31:01.047Z,-2.100000
2023-02-07T04:32:01.138Z,-2.100000
2023-02-07T04:33:01.021Z,-2.200000
2023-02-07T04:34:01.093Z,-2.200000
2023-02-07T04:35:04.502Z,-2.300000
2023-02-07T04:36:01.121Z,-2.300000
2023-02-07T04:37:01.027Z,-2.300000
2023-02-07T04:38:01.129Z,-2.400000
2023-02-07T04:39:01.435Z,-2.400000
2023-02-07T04:40:05.745Z,-2.400000
2023-02-07T04:41:01.053Z,-2.400000
2023-02-07T04:42:01.136Z,-2.400000
2023-02-07T04:43:01.048Z,-2.400000
2023-02-07T04:44:01.134Z,-2.400000
2023-02-07T04:45:05.521Z,-2.400000
2023-02-07T04:46:01.227Z,-2.400000
2023-02-07T04:47:01.078Z,-2.400000
2023-02-07T04:48:01.180Z,-2.400000
2023-02-07T04:49:01.081Z,-2.400000
2023-02-07T04:50:05.861Z,-2.300000
2023-02-07T04:51:01.120Z,-2.300000
2023-02-07T04:52:01.220Z,-2.400000
2023-02-07T04:53:01.105Z,-2.400000
2023-02-07T04:54:01.205Z,-2.400000
2023-02-07T04:55:05.457Z,-2.400000
2023-02-07T04:56:01.238Z,-2.400000
2023-02-07T04:57:01.175Z,-2.400000
2023-02-07T04:58:01.396Z,-2.400000
2023-02-07T04:59:01.159Z,-2.400000
2023-02-07T05:00:06.055Z,-2.400000
2023-02-07T05:01:01.202Z,-2.400000
2023-02-07T05:02:01.288Z,-2.500000
2023-02-07T05:03:00.893Z,-2.500000
2023-02-07T05:04:00.316Z,-2.500000
2023-02-07T05:05:03.709Z,-2.500000
2023-02-07T05:06:00.301Z,-2.500000
2023-02-07T05:07:00.216Z,-2.500000
2023-02-07T05:08:00.310Z,-2.500000
2023-02-07T05:09:00.258Z,-2.500000
2023-02-07T05:10:05.005Z,-2.500000
2023-02-07T05:11:00.269Z,-2.600000
2023-02-07T05:12:00.336Z,-2.600000
2023-02-07T05:13:00.262Z,-2.800000
2023-02-07T05:14:00.349Z,-2.800000
2023-02-07T05:15:03.723Z,-2.900000
2023-02-07T05:16:00.382Z,-2.900000
2023-02-07T05:17:00.281Z,-2.900000
2023-02-07T05:18:00.408Z,-3.100000
2023-02-07T05:19:00.296Z,-3.100000
2023-02-07T05:20:04.963Z,-3.100000
2023-02-07T05:21:00.333Z,-3.100000
2023-02-07T05:22:00.420Z,-3.100000
2023-02-07T05:23:00.338Z,-3.200000
2023-02-07T05:24:00.405Z,-3.200000
2023-02-07T05:25:06.146Z,-3.100000
2023-02-07T05:26:00.409Z,-3.100000
2023-02-07T05:27:00.370Z,-3.100000
2023-02-07T05:28:00.500Z,-3.100000
2023-02-07T05:29:00.353Z,-3.100000
2023-02-07T05:30:04.444Z,-3.100000
2023-02-07T05:31:00.539Z,-3.100000
2023-02-07T05:32:00.457Z,-3.100000
2023-02-07T05:33:00.411Z,-3.100000
2023-02-07T05:34:00.498Z,-3.100000
2023-02-07T05:35:04.902Z,-3.100000
2023-02-07T05:36:00.517Z,-3.100000
2023-02-07T05:37:00.427Z,-3.100000
2023-02-07T05:38:00.496Z,-3.100000
2023-02-07T05:39:00.445Z,-3.100000
2023-02-07T05:40:05.130Z,-3.100000
2023-02-07T05:41:00.461Z,-3.100000
2023-02-07T05:42:00.532Z,-3.100000
2023-02-07T05:43:00.463Z,-3.200000
2023-02-07T05:44:00.598Z,-3.200000
2023-02-07T05:45:04.856Z,-3.200000
2023-02-07T05:46:00.672Z,-3.300000
2023-02-07T05:47:00.510Z,-3.300000
2023-02-07T05:48:00.590Z,-3.400000
2023-02-07T05:49:00.494Z,-3.400000
2023-02-07T05:50:05.338Z,-3.400000
2023-02-07T05:51:00.518Z,-3.500000
2023-02-07T05:52:00.610Z,-3.500000
2023-02-07T05:53:00.514Z,-3.500000
2023-02-07T05:54:00.617Z,-3.600000
2023-02-07T05:55:04.936Z,-3.600000
2023-02-07T05:56:00.617Z,-3.600000
2023-02-07T05:57:00.552Z,-3.600000
2023-02-07T05:58:00.646Z,-3.700000
2023-02-07T05:59:00.531Z,-3.700000
2023-02-07T06:00:05.279Z,-3.700000
2023-02-07T06:01:00.579Z,-3.700000
2023-02-07T06:02:00.654Z,-3.700000
2023-02-07T06:03:00.618Z,-3.800000
2023-02-07T06:04:00.879Z,-3.800000
2023-02-07T06:05:04.021Z,-3.800000
2023-02-07T06:06:00.744Z,-3.800000
2023-02-07T06:07:00.620Z,-3.800000
2023-02-07T06:08:00.688Z,-3.800000
2023-02-07T06:09:00.644Z,-3.800000
2023-02-07T06:10:05.378Z,-3.800000
2023-02-07T06:11:00.645Z,-3.800000
2023-02-07T06:12:00.749Z,-3.800000
2023-02-07T06:13:00.670Z,-3.700000
2023-02-07T06:14:00.720Z,-3.700000
2023-02-07T06:15:05.062Z,-3.700000
2023-02-07T06:16:01.019Z,-3.700000
2023-02-07T06:17:00.663Z,-3.700000
2023-02-07T06:18:00.767Z,-3.700000
2023-02-07T06:19:00.671Z,-3.700000
2023-02-07T06:20:06.125Z,-3.700000
2023-02-07T06:21:00.728Z,-3.700000
2023-02-07T06:22:00.831Z,-3.700000
2023-02-07T06:23:00.723Z,-3.700000
2023-02-07T06:24:00.837Z,-3.700000
2023-02-07T06:25:05.086Z,-3.700000
2023-02-07T06:26:00.828Z,-3.700000
2023-02-07T06:27:00.767Z,-3.700000
2023-02-07T06:28:00.900Z,-3.700000
2023-02-07T06:29:00.771Z,-3.700000
2023-02-07T06:30:05.448Z,-3.700000
2023-02-07T06:31:00.909Z,-3.700000
2023-02-07T06:32:00.858Z,-3.700000
2023-02-07T06:33:00.800Z,-3.700000
2023-02-07T06:34:00.875Z,-3.800000
2023-02-07T06:35:05.182Z,-3.800000
2023-02-07T06:36:00.877Z,-3.800000
2023-02-07T06:37:00.800Z,-3.800000
2023-02-07T06:38:00.920Z,-3.800000
2023-02-07T06:39:00.828Z,-3.700000
2023-02-07T06:40:05.526Z,-3.700000
2023-02-07T06:41:00.838Z,-3.700000
2023-02-07T06:42:00.915Z,-3.700000
2023-02-07T06:43:00.834Z,-3.700000
2023-02-07T06:44:00.943Z,-3.800000
2023-02-07T06:45:05.190Z,-3.800000
2023-02-07T06:46:00.977Z,-3.800000
2023-02-07T06:47:00.895Z,-3.800000
2023-02-07T06:48:00.949Z,-3.800000
2023-02-07T06:49:00.873Z,-3.800000
2023-02-07T06:50:07.091Z,-3.800000
2023-02-07T06:51:00.907Z,-3.800000
2023-02-07T06:52:01.025Z,-3.800000
2023-02-07T06:53:00.925Z,-3.800000
2023-02-07T06:54:01.016Z,-3.600000
2023-02-07T06:55:05.319Z,-3.600000
2023-02-07T06:56:01.005Z,-3.600000
2023-02-07T06:57:00.961Z,-3.600000
2023-02-07T06:58:01.048Z,-3.600000
2023-02-07T06:59:00.946Z,-3.500000
2023-02-07T07:00:05.692Z,-3.500000
2023-02-07T07:01:00.964Z,-3.500000
2023-02-07T07:02:01.064Z,-3.500000
2023-02-07T07:03:01.029Z,-3.500000
2023-02-07T07:04:01.080Z,-3.400000
2023-02-07T07:05:05.339Z,-3.400000
2023-02-07T07:06:01.080Z,-3.400000
2023-02-07T07:07:01.007Z,-3.400000
2023-02-07T07:08:01.063Z,-3.400000
2023-02-07T07:09:01.027Z,-3.400000
2023-02-07T07:10:05.638Z,-3.500000
2023-02-07T07:11:01.032Z,-3.500000
2023-02-07T07:12:01.127Z,-3.500000
2023-02-07T07:13:01.050Z,-3.500000
2023-02-07T07:14:01.116Z,-3.500000
2023-02-07T07:15:06.803Z,-3.500000
2023-02-07T07:16:01.168Z,-3.500000
2023-02-07T07:17:01.065Z,-3.500000
2023-02-07T07:18:01.165Z,-3.500000
2023-02-07T07:19:01.077Z,-3.500000
2023-02-07T07:20:07.765Z,-3.500000
2023-02-07T07:21:01.106Z,-3.500000
2023-02-07T07:22:01.156Z,-3.400000
2023-02-07T07:23:01.113Z,-3.400000
2023-02-07T07:24:01.208Z,-3.400000
2023-02-07T07:25:05.453Z,-3.200000
2023-02-07T07:26:01.254Z,-3.200000
2023-02-07T07:27:01.140Z,-3.100000
2023-02-07T07:28:01.230Z,-3.100000
2023-02-07T07:29:01.132Z,-3.000000
2023-02-07T07:30:04.981Z,-3.000000
2023-02-07T07:31:01.192Z,-3.000000
2023-02-07T07:32:01.252Z,-2.800000
2023-02-07T07:33:01.162Z,-2.800000
2023-02-07T07:34:01.237Z,-2.800000
2023-02-07T07:35:05.518Z,-2.600000
2023-02-07T07:36:01.256Z,-2.600000
2023-02-07T07:37:01.183Z,-2.400000
2023-02-07T07:38:01.273Z,-2.400000
2023-02-07T07:39:01.195Z,-2.400000
2023-02-07T07:40:05.762Z,-2.400000
2023-02-07T07:41:01.206Z,-2.400000
2023-02-07T07:42:01.322Z,-2.000000
2023-02-07T07:43:00.211Z,-2.000000
2023-02-07T07:44:00.294Z,-1.800000
2023-02-07T07:45:07.442Z,-1.800000
2023-02-07T07:46:00.281Z,-1.800000
2023-02-07T07:47:00.247Z,-1.700000
2023-02-07T07:48:00.364Z,-1.700000
2023-02-07T07:49:00.252Z,-1.700000
2023-02-07T07:50:05.583Z,-1.700000
2023-02-07T07:51:00.305Z,-1.700000
2023-02-07T07:52:00.332Z,-1.300000
2023-02-07T07:53:00.245Z,-1.300000
2023-02-07T07:54:00.328Z,-1.100000
2023-02-07T07:55:04.675Z,-1.100000
2023-02-07T07:56:00.379Z,-1.100000
2023-02-07T07:57:00.284Z,-0.900000
2023-02-07T07:58:00.395Z,-0.900000
2023-02-07T07:59:05.759Z,-0.900000
2023-02-07T08:00:07.786Z,-0.700000
2023-02-07T08:01:00.407Z,-0.700000
2023-02-07T08:02:00.409Z,-0.700000
2023-02-07T08:03:00.318Z,-0.700000
2023-02-07T08:04:00.445Z,-0.700000
2023-02-07T08:05:04.794Z,-0.600000
2023-02-07T08:06:00.404Z,-0.600000
2023-02-07T08:07:00.340Z,-0.600000
2023-02-07T08:08:00.446Z,-0.400000
2023-02-07T08:09:00.337Z,-0.400000
2023-02-07T08:10:05.637Z,-0.400000
2023-02-07T08:11:00.338Z,-0.400000
2023-02-07T08:12:00.438Z,-0.400000
2023-02-07T08:13:00.392Z,-0.300000
2023-02-07T08:14:00.525Z,-0.300000
2023-02-07T08:15:03.764Z,-0.200000
2023-02-07T08:16:00.640Z,-0.200000
2023-02-07T08:17:00.381Z,-0.200000
2023-02-07T08:18:00.484Z,-0.100000
2023-02-07T08:19:00.395Z,-0.100000
2023-02-07T08:20:05.066Z,0.000000
2023-02-07T08:21:00.425Z,0.000000
2023-02-07T08:22:00.514Z,0.000000
2023-02-07T08:23:00.447Z,0.200000
2023-02-07T08:24:00.522Z,0.200000
2023-02-07T08:25:03.888Z,0.400000
2023-02-07T08:26:00.550Z,0.400000
2023-02-07T08:27:00.477Z,0.400000
2023-02-07T08:28:02.080Z,0.600000
2023-02-07T08:29:00.450Z,0.600000
2023-02-07T08:30:07.292Z,0.700000
2023-02-07T08:31:00.547Z,0.700000
2023-02-07T08:32:00.679Z,0.700000
2023-02-07T08:33:00.489Z,0.900000
2023-02-07T08:34:00.537Z,0.900000
2023-02-07T08:35:03.829Z,1.000000
2023-02-07T08:36:00.663Z,1.000000
2023-02-07T08:37:00.501Z,1.100000
2023-02-07T08:38:00.603Z,1.100000
2023-02-07T08:39:00.544Z,1.100000
2023-02-07T08:40:05.110Z,1.200000
2023-02-07T08:41:00.522Z,1.200000
2023-02-07T08:42:00.608Z,1.200000
2023-02-07T08:43:00.549Z,1.000000
2023-02-07T08:44:00.656Z,1.000000
2023-02-07T08:45:04.010Z,1.000000
2023-02-07T08:46:00.907Z,1.000000
2023-02-07T08:47:00.563Z,1.000000
2023-02-07T08:48:00.652Z,1.000000
2023-02-07T08:49:00.591Z,1.000000
2023-02-07T08:50:05.173Z,0.900000
2023-02-07T08:51:00.607Z,0.900000
2023-02-07T08:52:00.657Z,0.900000
2023-02-07T08:53:00.610Z,0.800000
2023-02-07T08:54:00.688Z,0.800000
2023-02-07T08:55:04.077Z,0.900000
2023-02-07T08:56:00.703Z,0.900000
2023-02-07T08:57:00.697Z,0.900000
2023-02-07T08:58:00.684Z,1.000000
2023-02-07T08:59:00.624Z,1.000000
2023-02-07T09:00:06.022Z,1.000000
2023-02-07T09:01:00.718Z,1.100000
2023-02-07T09:02:01.451Z,1.100000
2023-02-07T09:03:00.671Z,1.100000
2023-02-07T09:04:01.828Z,1.400000
2023-02-07T09:05:05.745Z,1.400000
2023-02-07T09:06:00.859Z,1.500000
2023-02-07T09:07:00.694Z,1.500000
2023-02-07T09:08:01.408Z,1.500000
2023-02-07T09:09:00.713Z,1.500000
2023-02-07T09:10:04.322Z,1.500000
2023-02-07T09:11:00.766Z,1.500000
2023-02-07T09:12:01.181Z,1.500000
2023-02-07T09:13:00.724Z,1.600000
2023-02-07T09:14:01.638Z,1.600000
2023-02-07T09:15:07.012Z,1.600000
2023-02-07T09:16:02.051Z,1.600000
2023-02-07T09:17:00.780Z,1.600000
2023-02-07T09:18:00.867Z,1.600000
2023-02-07T09:19:00.765Z,1.600000
2023-02-07T09:20:05.816Z,1.600000
2023-02-07T09:21:00.769Z,1.600000
2023-02-07T09:22:00.829Z,1.600000
2023-02-07T09:23:00.779Z,1.600000
2023-02-07T09:24:00.871Z,1.600000
2023-02-07T09:25:05.137Z,1.600000
2023-02-07T09:26:00.867Z,1.700000
2023-02-07T09:27:00.786Z,1.700000
2023-02-07T09:28:00.909Z,1.800000
2023-02-07T09:29:00.802Z,1.800000
2023-02-07T09:30:04.518Z,1.800000
2023-02-07T09:31:00.879Z,1.800000
2023-02-07T09:32:00.916Z,1.800000
2023-02-07T09:33:00.823Z,1.700000
2023-02-07T09:34:00.903Z,1.700000
2023-02-07T09:35:05.319Z,1.700000
2023-02-07T09:36:00.936Z,1.700000
2023-02-07T09:37:00.849Z,1.700000
2023-02-07T09:38:00.939Z,1.900000
2023-02-07T09:39:00.868Z,1.900000
2023-02-07T09:40:05.765Z,1.800000
2023-02-07T09:41:00.867Z,1.800000
2023-02-07T09:42:00.977Z,1.800000
2023-02-07T09:43:01.090Z,2.000000
2023-02-07T09:44:01.224Z,2.000000
2023-02-07T09:45:04.400Z,2.000000
2023-02-07T09:46:01.017Z,2.100000
2023-02-07T09:47:00.919Z,2.100000
2023-02-07T09:48:01.015Z,2.100000
2023-02-07T09:49:00.904Z,2.100000
2023-02-07T09:50:05.694Z,2.300000
2023-02-07T09:51:00.957Z,2.300000
2023-02-07T09:52:01.011Z,2.300000
2023-02-07T09:53:00.954Z,2.300000
2023-02-07T09:54:01.052Z,2.400000
2023-02-07T09:55:04.402Z,2.400000
2023-02-07T09:56:01.042Z,2.500000
2023-02-07T09:57:00.976Z,2.500000
2023-02-07T09:58:01.050Z,2.500000
2023-02-07T09:59:00.974Z,2.600000
2023-02-07T10:00:08.664Z,2.600000
2023-02-07T10:01:01.032Z,2.500000
2023-02-07T10:02:01.129Z,2.500000
2023-02-07T10:03:01.044Z,2.400000
2023-02-07T10:04:01.092Z,2.400000
2023-02-07T10:05:05.525Z,2.400000
2023-02-07T10:06:09.212Z,2.500000
2023-02-07T10:07:01.045Z,2.500000
2023-02-07T10:08:01.161Z,2.500000
2023-02-07T10:09:01.064Z,2.900000
2023-02-07T10:10:05.701Z,2.900000
2023-02-07T10:11:01.074Z,3.000000
2023-02-07T10:12:01.177Z,3.000000
2023-02-07T10:13:01.095Z,3.000000
2023-02-07T10:14:01.226Z,2.800000
2023-02-07T10:15:04.553Z,2.800000
2023-02-07T10:16:01.243Z,2.800000
2023-02-07T10:17:01.133Z,2.700000
2023-02-07T10:18:01.218Z,2.700000
2023-02-07T10:19:01.144Z,2.600000
2023-02-07T10:20:05.928Z,2.600000
2023-02-07T10:21:01.163Z,2.600000
2023-02-07T10:22:01.382Z,2.400000
2023-02-07T10:23:01.202Z,2.400000
2023-02-07T10:24:01.238Z,2.400000
2023-02-07T10:25:05.688Z,2.400000
2023-02-07T10:26:01.282Z,2.400000
2023-02-07T10:27:01.214Z,2.400000
2023-02-07T10:28:01.294Z,2.400000
2023-02-07T10:29:00.191Z,2.700000
2023-02-07T10:30:04.930Z,2.700000
2023-02-07T10:31:00.354Z,2.700000
2023-02-07T10:32:00.312Z,2.800000
2023-02-07T10:33:00.256Z,2.800000
2023-02-07T10:34:00.309Z,2.800000
2023-02-07T10:35:04.702Z,2.800000
2023-02-07T10:36:00.311Z,2.900000
2023-02-07T10:37:00.239Z,2.900000
2023-02-07T10:38:00.366Z,2.900000
2023-02-07T10:39:08.842Z,3.100000
2023-02-07T10:40:07.593Z,3.100000
2023-02-07T10:41:00.292Z,3.100000
2023-02-07T10:42:00.356Z,3.200000
2023-02-07T10:43:00.281Z,3.200000
2023-02-07T10:44:00.388Z,3.200000
2023-02-07T10:45:04.785Z,3.300000
2023-02-07T10:46:05.669Z,3.300000
2023-02-07T10:47:00.322Z,3.200000
2023-02-07T10:48:00.389Z,3.200000
2023-02-07T10:49:00.329Z,3.100000
2023-02-07T10:50:04.970Z,3.100000
2023-02-07T10:51:00.344Z,3.100000
2023-02-07T10:52:00.440Z,3.100000
2023-02-07T10:53:00.360Z,3.100000
2023-02-07T10:54:00.462Z,3.300000
2023-02-07T10:55:05.552Z,3.300000
2023-02-07T10:56:00.453Z,3.300000
2023-02-07T10:57:02.453Z,3.100000
2023-02-07T10:58:06.399Z,3.100000
2023-02-07T10:59:00.395Z,3.200000
2023-02-07T11:00:04.566Z,3.200000
2023-02-07T11:01:00.423Z,3.200000
2023-02-07T11:02:00.539Z,3.300000
2023-02-07T11:03:00.500Z,3.300000
2023-02-07T11:04:00.482Z,3.400000
2023-02-07T11:05:05.641Z,3.400000
2023-02-07T11:06:00.506Z,3.400000
2023-02-07T11:07:00.459Z,3.500000
2023-02-07T11:08:00.498Z,3.500000
2023-02-07T11:09:00.468Z,3.700000
2023-02-07T11:10:09.112Z,3.700000
2023-02-07T11:11:00.486Z,3.700000
2023-02-07T11:12:00.562Z,3.700000
2023-02-07T11:13:00.484Z,3.700000
2023-02-07T11:14:00.543Z,3.700000
2023-02-07T11:15:03.940Z,3.900000
2023-02-07T11:16:00.642Z,3.900000
2023-02-07T11:17:00.522Z,3.900000
2023-02-07T11:18:00.673Z,4.000000
2023-02-07T11:19:00.537Z,4.000000
2023-02-07T11:20:05.108Z,4.200000
2023-02-07T11:21:00.549Z,4.200000
2023-02-07T11:22:00.616Z,4.000000
2023-02-07T11:23:00.547Z,4.000000
2023-02-07T11:24:00.625Z,4.000000
2023-02-07T11:25:04.156Z,4.000000
2023-02-07T11:26:00.674Z,4.000000
2023-02-07T11:27:00.593Z,4.000000
2023-02-07T11:28:00.725Z,4.000000
2023-02-07T11:29:00.566Z,4.000000